Time;durP1;ratioP1;P1;durP2;ratioP2;P2;SDS_P1;SDS_P2;PMS_P1;PMS_P2;Temp;Humidity;BMP_temperature;BMP_pressure;BME280_temperature;BME280_humidity;BME280_pressure;Samples;Min_cycle;Max_cycle;Signal;HPM_P1;HPM_P2
2022/11/29 00:00:28;;;;;;;0.70;0.70;;;;;;;;;;1821998;78;26264;-58
2022/11/29 00:02:55;;;;;;;0.70;0.70;;;;;;;;;;1839546;76;26231;-57
2022/11/29 00:05:23;;;;;;;0.70;0.70;;;;;;;;;;1822507;77;26240;-58
2022/11/29 00:07:50;;;;;;;0.60;0.60;;;;;;;;;;1791670;80;26684;-58
2022/11/29 00:10:17;;;;;;;0.70;0.70;;;;;;;;;;1826123;77;26362;-57
2022/11/29 00:12:48;;;;;;;0.70;0.70;;;;;;;;;;1839061;77;26259;-56
2022/11/29 00:15:15;;;;;;;0.70;0.70;;;;;;;;;;1820506;78;26233;-58
2022/11/29 00:17:42;;;;;;;0.62;0.62;;;;;;;;;;1823101;77;26260;-58
2022/11/29 00:20:10;;;;;;;0.65;0.65;;;;;;;;;;1842592;76;26211;-58
2022/11/29 00:22:37;;;;;;;0.60;0.60;;;;;;;;;;1821275;77;26288;-58
2022/11/29 00:25:05;;;;;;;0.62;0.62;;;;;;;;;;1809172;78;26626;-58
2022/11/29 00:27:32;;;;;;;0.75;0.75;;;;;;;;;;1821240;77;26070;-58
2022/11/29 00:30:00;;;;;;;0.70;0.70;;;;;;;;;;1836461;77;26681;-58
2022/11/29 00:32:27;;;;;;;0.80;0.80;;;;;;;;;;1821482;78;27081;-57
2022/11/29 00:34:54;;;;;;;0.70;0.70;;;;;;;;;;1816699;78;26787;-58
2022/11/29 00:37:21;;;;;;;0.70;0.70;;;;;;;;;;1773051;79;26389;-58
2022/11/29 00:39:49;;;;;;;0.70;0.70;;;;;;;;;;1800572;78;26220;-57
2022/11/29 00:42:16;;;;;;;0.70;0.70;;;;;;;;;;1800480;79;26339;-58
2022/11/29 00:44:43;;;;;;;0.72;0.72;;;;;;;;;;1801673;78;26191;-58
2022/11/29 00:47:10;;;;;;;0.80;0.80;;;;;;;;;;1802166;79;26274;-57
2022/11/29 00:49:38;;;;;;;0.70;0.70;;;;;;;;;;1794647;79;26288;-59
2022/11/29 00:52:05;;;;;;;0.70;0.70;;;;;;;;;;1797982;79;26225;-58
2022/11/29 00:54:32;;;;;;;0.70;0.70;;;;;;;;;;1800653;79;26744;-58
2022/11/29 00:56:59;;;;;;;0.80;0.80;;;;;;;;;;1800982;79;26256;-58
2022/11/29 00:59:29;;;;;;;7.60;1.00;;;;;;;;;;1802255;79;26279;-57
2022/11/29 01:01:56;;;;;;;0.88;0.88;;;;;;;;;;1797146;79;26228;-58
2022/11/29 01:04:23;;;;;;;0.80;0.80;;;;;;;;;;1794950;79;26651;-58
2022/11/29 01:06:51;;;;;;;0.85;0.85;;;;;;;;;;1771623;79;26772;-58
2022/11/29 01:09:18;;;;;;;0.78;0.78;;;;;;;;;;1792176;79;26195;-58
2022/11/29 01:11:46;;;;;;;0.80;0.80;;;;;;;;;;1779106;79;26322;-58
2022/11/29 01:14:13;;;;;;;0.80;0.80;;;;;;;;;;1801864;78;26047;-58
2022/11/29 01:16:40;;;;;;;0.90;0.90;;;;;;;;;;1766012;81;26308;-58
2022/11/29 01:19:08;;;;;;;0.82;0.82;;;;;;;;;;1776785;79;26238;-57
2022/11/29 01:21:35;;;;;;;0.85;0.85;;;;;;;;;;1770512;79;26236;-58
2022/11/29 01:24:02;;;;;;;0.88;0.88;;;;;;;;;;1796016;79;26296;-58
2022/11/29 01:26:30;;;;;;;0.80;0.80;;;;;;;;;;1772755;79;26217;-58
2022/11/29 01:28:58;;;;;;;0.82;0.82;;;;;;;;;;1802310;79;26996;-58
2022/11/29 01:31:30;;;;;;;0.80;0.80;;;;;;;;;;1794505;79;26271;-58
2022/11/29 01:33:58;;;;;;;0.80;0.80;;;;;;;;;;1772030;81;26311;-57
2022/11/29 01:36:25;;;;;;;0.90;0.90;;;;;;;;;;1781265;80;26297;-58
2022/11/29 01:38:53;;;;;;;0.80;0.80;;;;;;;;;;1849667;76;26293;-58
2022/11/29 01:41:22;;;;;;;0.88;0.88;;;;;;;;;;1855329;76;26265;-59
2022/11/29 01:44:05;;;;;;;1.00;1.00;;;;;;;;;;1812870;78;26184;-58
2022/11/29 01:46:34;;;;;;;0.80;0.80;;;;;;;;;;1775224;79;26308;-58
2022/11/29 01:49:03;;;;;;;0.88;0.88;;;;;;;;;;1850587;77;26297;-56
2022/11/29 01:51:31;;;;;;;0.98;0.98;;;;;;;;;;1851294;76;26234;-58
2022/11/29 01:53:58;;;;;;;0.80;0.80;;;;;;;;;;1858989;76;26220;-58
2022/11/29 01:56:25;;;;;;;0.80;0.80;;;;;;;;;;1851358;77;26661;-58
2022/11/29 01:58:53;;;;;;;0.90;0.90;;;;;;;;;;1852655;76;26211;-58
2022/11/29 02:01:20;;;;;;;0.80;0.80;;;;;;;;;;1857539;76;26245;-58
2022/11/29 02:03:47;;;;;;;0.78;0.78;;;;;;;;;;1851468;76;26301;-58
2022/11/29 02:06:15;;;;;;;0.80;0.80;;;;;;;;;;1814021;79;26646;-60
2022/11/29 02:08:43;;;;;;;0.90;0.90;;;;;;;;;;1814182;77;26233;-58
2022/11/29 02:11:20;;;;;;;0.90;0.90;;;;;;;;;;1782711;80;26285;-58
2022/11/29 02:13:49;;;;;;;1.00;1.00;;;;;;;;;;1833700;77;26313;-58
2022/11/29 02:16:30;;;;;;;0.90;0.90;;;;;;;;;;1819745;77;26208;-58
2022/11/29 02:19:02;;;;;;;0.90;0.90;;;;;;;;;;1823397;77;26262;-58
2022/11/29 02:21:31;;;;;;;0.93;0.93;;;;;;;;;;1784844;79;26166;-57
2022/11/29 02:24:12;;;;;;;0.80;0.80;;;;;;;;;;1833768;77;26676;-57
2022/11/29 02:26:55;;;;;;;0.90;0.90;;;;;;;;;;1828231;77;26719;-57
2022/11/29 02:29:33;;;;;;;1.00;1.00;;;;;;;;;;1834287;77;26232;-58
2022/11/29 02:32:16;;;;;;;0.93;0.93;;;;;;;;;;1829082;77;26701;-57
2022/11/29 02:35:02;;;;;;;1.00;1.00;;;;;;;;;;1813205;78;26304;-57
2022/11/29 02:37:31;;;;;;;1.00;1.00;;;;;;;;;;1778176;80;26270;-58
2022/11/29 02:39:59;;;;;;;1.12;1.12;;;;;;;;;;1745584;80;26265;-57
2022/11/29 02:42:28;;;;;;;1.00;1.00;;;;;;;;;;1808502;78;26234;-57
2022/11/29 02:45:00;;;;;;;0.95;0.95;;;;;;;;;;1801968;78;26211;-58
2022/11/29 02:47:29;;;;;;;1.00;1.00;;;;;;;;;;1808477;78;26750;-57
2022/11/29 02:50:06;;;;;;;0.85;0.85;;;;;;;;;;1808585;78;26327;-57
2022/11/29 02:52:41;;;;;;;0.93;0.93;;;;;;;;;;1806824;78;26226;-58
2022/11/29 02:55:26;;;;;;;0.90;0.90;;;;;;;;;;1808028;78;26269;-58
2022/11/29 02:58:03;;;;;;;0.80;0.80;;;;;;;;;;1807844;78;26241;-58
2022/11/29 03:00:32;;;;;;;0.80;0.80;;;;;;;;;;1803502;78;27294;-58
2022/11/29 03:03:04;;;;;;;1.10;1.10;;;;;;;;;;1795993;78;26298;-57
2022/11/29 03:05:50;;;;;;;0.90;0.90;;;;;;;;;;1807954;78;26326;-58
2022/11/29 03:08:21;;;;;;;0.80;0.80;;;;;;;;;;1801909;79;26312;-58
2022/11/29 03:10:50;;;;;;;0.80;0.80;;;;;;;;;;1808571;78;26234;-58
2022/11/29 03:13:19;;;;;;;0.80;0.80;;;;;;;;;;1803229;78;26221;-58
2022/11/29 03:15:50;;;;;;;0.90;0.90;;;;;;;;;;1765769;79;26254;-57
2022/11/29 03:18:34;;;;;;;0.90;0.90;;;;;;;;;;1807209;78;26656;-58
2022/11/29 03:21:19;;;;;;;1.00;1.00;;;;;;;;;;1805879;78;26250;-58
2022/11/29 03:23:48;;;;;;;0.80;0.80;;;;;;;;;;1805272;78;26293;-58
2022/11/29 03:26:26;;;;;;;0.88;0.88;;;;;;;;;;1805652;78;26218;-58
2022/11/29 03:29:00;;;;;;;0.90;0.90;;;;;;;;;;1800716;78;26337;-58
2022/11/29 03:31:30;;;;;;;0.90;0.90;;;;;;;;;;1799265;78;26237;-57
2022/11/29 03:34:02;;;;;;;0.90;0.90;;;;;;;;;;1806543;78;26350;-58
2022/11/29 03:36:30;;;;;;;0.80;0.80;;;;;;;;;;1813487;78;26356;-58
2022/11/29 03:38:59;;;;;;;0.80;0.80;;;;;;;;;;1843147;76;26219;-57
2022/11/29 03:41:28;;;;;;;0.80;0.80;;;;;;;;;;1844050;78;26201;-57
2022/11/29 03:44:03;;;;;;;0.90;0.90;;;;;;;;;;1825405;76;26236;-58
2022/11/29 03:46:31;;;;;;;0.90;0.90;;;;;;;;;;1839035;76;26309;-57
2022/11/29 03:49:00;;;;;;;1.10;1.10;;;;;;;;;;1842599;76;26223;-58
2022/11/29 03:51:32;;;;;;;0.90;0.90;;;;;;;;;;1819386;77;27089;-57
2022/11/29 03:54:04;;;;;;;0.90;0.90;;;;;;;;;;1791845;79;26213;-58
2022/11/29 03:56:32;;;;;;;0.90;0.90;;;;;;;;;;1793492;79;26217;-58
2022/11/29 03:59:07;;;;;;;0.90;0.90;;;;;;;;;;1822696;77;26793;-59
2022/11/29 04:01:36;;;;;;;1.00;1.00;;;;;;;;;;1819217;78;26948;-58
2022/11/29 04:04:16;;;;;;;0.90;0.90;;;;;;;;;;1822862;77;26353;-57
2022/11/29 04:07:03;;;;;;;0.90;0.90;;;;;;;;;;1786786;79;26214;-58
2022/11/29 04:09:35;;;;;;;1.10;1.10;;;;;;;;;;1822251;77;26237;-58
2022/11/29 04:12:19;;;;;;;0.90;0.90;;;;;;;;;;1842952;76;26259;-58
2022/11/29 04:14:48;;;;;;;0.80;0.80;;;;;;;;;;1818561;78;26310;-58
2022/11/29 04:17:22;;;;;;;0.85;0.85;;;;;;;;;;1839466;76;26317;-58
2022/11/29 04:19:57;;;;;;;0.80;0.80;;;;;;;;;;1841036;78;26227;-58
2022/11/29 04:22:29;;;;;;;0.80;0.80;;;;;;;;;;1840384;76;26211;-58
2022/11/29 04:25:00;;;;;;;0.80;0.80;;;;;;;;;;1846517;76;26220;-58
2022/11/29 04:27:35;;;;;;;1.00;1.00;;;;;;;;;;1839208;76;26235;-57
2022/11/29 04:30:07;;;;;;;0.98;0.98;;;;;;;;;;1843655;78;26235;-58
2022/11/29 04:32:53;;;;;;;0.82;0.82;;;;;;;;;;1822485;78;26703;-58
2022/11/29 04:35:27;;;;;;;0.90;0.90;;;;;;;;;;1792424;80;26278;-57
2022/11/29 04:37:59;;;;;;;0.80;0.80;;;;;;;;;;1794314;78;26255;-58
2022/11/29 04:40:37;;;;;;;0.95;0.95;;;;;;;;;;1770662;80;26294;-57
2022/11/29 04:43:22;;;;;;;1.00;1.00;;;;;;;;;;1788927;79;26658;-58
2022/11/29 04:45:54;;;;;;;1.10;1.10;;;;;;;;;;1800773;79;26297;-58
2022/11/29 04:48:39;;;;;;;1.07;1.02;;;;;;;;;;1798216;79;26235;-58
2022/11/29 04:51:07;;;;;;;0.90;0.90;;;;;;;;;;1764136;80;26704;-58
2022/11/29 04:53:51;;;;;;;1.02;1.02;;;;;;;;;;1798742;79;26209;-58
2022/11/29 04:56:32;;;;;;;1.00;1.00;;;;;;;;;;1798377;79;26238;-57
2022/11/29 04:59:15;;;;;;;0.95;0.95;;;;;;;;;;1766659;81;26731;-58
2022/11/29 05:01:44;;;;;;;0.95;0.95;;;;;;;;;;1769476;80;26209;-58
2022/11/29 05:04:13;;;;;;;0.88;0.88;;;;;;;;;;1800184;78;26311;-57
2022/11/29 05:06:42;;;;;;;1.10;1.10;;;;;;;;;;1799032;78;26203;-59
2022/11/29 05:09:14;;;;;;;1.02;1.02;;;;;;;;;;1800025;78;26311;-58
2022/11/29 05:11:54;;;;;;;0.90;0.90;;;;;;;;;;1800179;78;26772;-58
2022/11/29 05:14:26;;;;;;;1.07;1.07;;;;;;;;;;1795873;79;26297;-58
2022/11/29 05:17:11;;;;;;;1.00;1.00;;;;;;;;;;1801346;79;26231;-58
2022/11/29 05:19:57;;;;;;;1.10;1.10;;;;;;;;;;1801421;79;26203;-58
2022/11/29 05:22:28;;;;;;;0.85;0.85;;;;;;;;;;1797489;80;26316;-58
2022/11/29 05:25:12;;;;;;;1.00;1.00;;;;;;;;;;1764333;81;26227;-58
2022/11/29 05:27:47;;;;;;;1.00;1.00;;;;;;;;;;1784485;78;26718;-58
2022/11/29 05:30:16;;;;;;;1.00;1.00;;;;;;;;;;1775578;79;26242;-58
2022/11/29 05:32:45;;;;;;;0.80;0.80;;;;;;;;;;1784153;80;26670;-58
2022/11/29 05:35:26;;;;;;;0.90;0.90;;;;;;;;;;1788429;79;26249;-58
2022/11/29 05:38:11;;;;;;;1.00;1.00;;;;;;;;;;1787805;80;26386;-58
2022/11/29 05:40:46;;;;;;;0.90;0.90;;;;;;;;;;1780699;79;26782;-58
2022/11/29 05:43:20;;;;;;;0.90;0.90;;;;;;;;;;1788124;79;26164;-58
2022/11/29 05:46:06;;;;;;;0.93;0.93;;;;;;;;;;1788392;79;26246;-56
2022/11/29 05:48:44;;;;;;;1.10;1.10;;;;;;;;;;1799780;79;26301;-58
2022/11/29 05:51:13;;;;;;;1.00;1.00;;;;;;;;;;1802681;78;26182;-57
2022/11/29 05:53:45;;;;;;;1.00;1.00;;;;;;;;;;1796358;78;26227;-58
2022/11/29 05:56:14;;;;;;;1.02;1.02;;;;;;;;;;1797618;78;26250;-58
2022/11/29 05:58:43;;;;;;;0.98;0.98;;;;;;;;;;1797961;79;26290;-58
2022/11/29 06:01:17;;;;;;;0.90;0.90;;;;;;;;;;1797601;78;26222;-58
2022/11/29 06:03:46;;;;;;;1.00;1.00;;;;;;;;;;1788373;79;26305;-57
2022/11/29 06:06:15;;;;;;;0.80;0.80;;;;;;;;;;1796148;78;26258;-58
2022/11/29 06:08:52;;;;;;;0.90;0.90;;;;;;;;;;1768841;81;26160;-58
2022/11/29 06:11:28;;;;;;;1.10;1.10;;;;;;;;;;1767838;80;26260;-58
2022/11/29 06:13:56;;;;;;;0.90;0.90;;;;;;;;;;1770572;81;26298;-58
2022/11/29 06:16:28;;;;;;;1.57;0.93;;;;;;;;;;1797135;79;26222;-58
2022/11/29 06:18:57;;;;;;;0.90;0.90;;;;;;;;;;1767689;80;26192;-58
2022/11/29 06:21:26;;;;;;;1.65;0.90;;;;;;;;;;1764315;81;26257;-59
2022/11/29 06:24:07;;;;;;;0.90;0.90;;;;;;;;;;1788276;79;26352;-58
2022/11/29 06:26:43;;;;;;;1.10;1.10;;;;;;;;;;1785789;80;26652;-58
2022/11/29 06:29:18;;;;;;;0.95;0.95;;;;;;;;;;1800026;79;26289;-57
2022/11/29 06:31:47;;;;;;;0.80;0.80;;;;;;;;;;1766354;80;26283;-58
2022/11/29 06:34:19;;;;;;;1.20;1.20;;;;;;;;;;1800402;78;26231;-58
2022/11/29 06:36:48;;;;;;;1.52;0.90;;;;;;;;;;1769308;80;26252;-59
2022/11/29 06:39:15;;;;;;;0.88;0.88;;;;;;;;;;1819121;77;26376;-57
2022/11/29 06:41:42;;;;;;;0.95;0.95;;;;;;;;;;1819867;77;26241;-58
2022/11/29 06:44:10;;;;;;;1.60;0.90;;;;;;;;;;1819530;79;26804;-58
2022/11/29 06:46:39;;;;;;;1.30;1.20;;;;;;;;;;1814464;77;26260;-58
2022/11/29 06:49:11;;;;;;;1.00;1.00;;;;;;;;;;1817513;77;26309;-59
2022/11/29 06:51:48;;;;;;;1.20;1.10;;;;;;;;;;1817563;77;26230;-58
2022/11/29 06:54:26;;;;;;;1.07;1.07;;;;;;;;;;1818985;77;26181;-58
2022/11/29 06:56:58;;;;;;;1.00;1.00;;;;;;;;;;1818887;77;26245;-58
2022/11/29 06:59:29;;;;;;;1.12;1.10;;;;;;;;;;1799800;78;26226;-58
2022/11/29 07:01:58;;;;;;;1.12;1.00;;;;;;;;;;1815631;79;26781;-58
2022/11/29 07:04:44;;;;;;;1.10;1.10;;;;;;;;;;1803550;78;26262;-58
2022/11/29 07:07:16;;;;;;;2.47;1.20;;;;;;;;;;1819657;77;27006;-58
2022/11/29 07:09:43;;;;;;;1.60;1.20;;;;;;;;;;1788871;79;26257;-58
2022/11/29 07:12:11;;;;;;;2.77;1.00;;;;;;;;;;1819691;77;26249;-58
2022/11/29 07:14:38;;;;;;;4.95;1.30;;;;;;;;;;1804305;78;26224;-58
2022/11/29 07:17:25;;;;;;;1.15;1.15;;;;;;;;;;1817573;77;26239;-58
2022/11/29 07:20:06;;;;;;;1.65;1.00;;;;;;;;;;1787604;79;26200;-58
2022/11/29 07:22:35;;;;;;;1.30;1.20;;;;;;;;;;1819523;77;26646;-58
2022/11/29 07:25:10;;;;;;;1.10;1.10;;;;;;;;;;1824516;77;27157;-62
2022/11/29 07:27:39;;;;;;;1.10;1.10;;;;;;;;;;1788932;79;26257;-61
2022/11/29 07:30:08;;;;;;;2.60;1.32;;;;;;;;;;1815980;78;29307;-58
2022/11/29 07:32:45;;;;;;;2.25;1.15;;;;;;;;;;1821491;77;26216;-62
2022/11/29 07:35:23;;;;;;;3.95;1.30;;;;;;;;;;1802529;78;28216;-60
2022/11/29 07:37:52;;;;;;;1.30;1.20;;;;;;;;;;1819204;77;26791;-60
2022/11/29 07:40:21;;;;;;;1.45;1.22;;;;;;;;;;1818953;79;26229;-60
2022/11/29 07:42:50;;;;;;;1.10;1.10;;;;;;;;;;1816658;79;26319;-60
2022/11/29 07:45:24;;;;;;;1.22;1.20;;;;;;;;;;1784123;80;26238;-60
2022/11/29 07:47:51;;;;;;;1.65;1.02;;;;;;;;;;1818964;78;26230;-60
2022/11/29 07:50:19;;;;;;;1.65;1.05;;;;;;;;;;1819439;77;26695;-61
2022/11/29 07:52:47;;;;;;;1.35;1.25;;;;;;;;;;1821514;77;26281;-61
2022/11/29 07:55:16;;;;;;;1.42;1.10;;;;;;;;;;1821009;77;26250;-60
2022/11/29 07:57:43;;;;;;;1.00;0.90;;;;;;;;;;1819467;77;26731;-59
2022/11/29 08:00:11;;;;;;;3.22;1.17;;;;;;;;;;1819140;77;26263;-61
2022/11/29 08:02:38;;;;;;;0.82;0.82;;;;;;;;;;1787223;79;26205;-62
2022/11/29 08:05:06;;;;;;;0.78;0.78;;;;;;;;;;1817736;77;26742;-58
2022/11/29 08:07:34;;;;;;;1.00;1.00;;;;;;;;;;1827916;77;26276;-59
2022/11/29 08:10:01;;;;;;;2.58;0.98;;;;;;;;;;1826150;77;26794;-61
2022/11/29 08:12:29;;;;;;;0.98;0.98;;;;;;;;;;1831037;77;26264;-60
2022/11/29 08:14:56;;;;;;;1.22;1.10;;;;;;;;;;1829872;77;26259;-60
2022/11/29 08:17:24;;;;;;;1.15;1.00;;;;;;;;;;1828358;78;26216;-62
2022/11/29 08:19:52;;;;;;;0.90;0.90;;;;;;;;;;1829679;76;26764;-60
2022/11/29 08:22:19;;;;;;;0.90;0.90;;;;;;;;;;1831702;78;26282;-58
2022/11/29 08:24:46;;;;;;;1.10;1.00;;;;;;;;;;1828391;78;26316;-60
2022/11/29 08:27:13;;;;;;;2.58;0.90;;;;;;;;;;1831900;77;26317;-60
2022/11/29 08:29:41;;;;;;;0.80;0.80;;;;;;;;;;1831406;77;26507;-60
2022/11/29 08:32:08;;;;;;;0.90;0.90;;;;;;;;;;1827022;78;26203;-60
2022/11/29 08:34:35;;;;;;;1.00;1.00;;;;;;;;;;1828823;77;26350;-64
2022/11/29 08:37:02;;;;;;;0.80;0.80;;;;;;;;;;1828767;77;26234;-61
2022/11/29 08:39:30;;;;;;;0.80;0.80;;;;;;;;;;1839039;76;26390;-62
2022/11/29 08:41:57;;;;;;;0.90;0.90;;;;;;;;;;1843120;76;26277;-60
2022/11/29 08:44:24;;;;;;;0.80;0.80;;;;;;;;;;1846072;77;26317;-60
2022/11/29 08:50:00;;;;;;;1.35;0.95;;;;;;;;;;1839607;77;26274;-59
2022/11/29 08:54:54;;;;;;;1.00;0.98;;;;;;;;;;1804155;79;26239;-64
2022/11/29 08:57:21;;;;;;;0.75;0.75;;;;;;;;;;1844382;77;25998;-63
2022/11/29 08:59:48;;;;;;;0.80;0.80;;;;;;;;;;1844048;76;26904;-60
2022/11/29 09:02:15;;;;;;;0.90;0.90;;;;;;;;;;1843252;76;26814;-65
2022/11/29 09:04:43;;;;;;;0.85;0.85;;;;;;;;;;1842320;76;26842;-62
2022/11/29 09:07:11;;;;;;;1.00;1.00;;;;;;;;;;1843775;76;26279;-61
2022/11/29 09:09:38;;;;;;;0.82;0.82;;;;;;;;;;1846368;77;26279;-62
2022/11/29 09:12:07;;;;;;;2.77;1.00;;;;;;;;;;1844312;76;26688;-59
2022/11/29 09:14:34;;;;;;;1.00;1.00;;;;;;;;;;1834899;77;26682;-64
2022/11/29 09:17:02;;;;;;;1.00;1.00;;;;;;;;;;1846704;76;27105;-63
2022/11/29 09:19:29;;;;;;;1.00;1.00;;;;;;;;;;1844100;76;27043;-60
2022/11/29 09:21:56;;;;;;;0.80;0.80;;;;;;;;;;1842428;77;26901;-62
2022/11/29 09:24:23;;;;;;;0.90;0.90;;;;;;;;;;1844039;77;26281;-59
2022/11/29 09:26:51;;;;;;;0.80;0.80;;;;;;;;;;1847527;77;26224;-58
2022/11/29 09:29:18;;;;;;;0.90;0.90;;;;;;;;;;1846120;76;26217;-60
2022/11/29 09:31:45;;;;;;;5.35;1.67;;;;;;;;;;1804206;78;26307;-59
2022/11/29 09:34:13;;;;;;;1.00;1.00;;;;;;;;;;1807780;78;26341;-60
2022/11/29 09:36:42;;;;;;;1.70;1.00;;;;;;;;;;1843767;77;26328;-63
2022/11/29 09:39:11;;;;;;;1.00;1.00;;;;;;;;;;1838150;76;26374;-66
2022/11/29 09:41:40;;;;;;;0.82;0.82;;;;;;;;;;1790225;79;26292;-60
2022/11/29 09:44:08;;;;;;;1.00;1.00;;;;;;;;;;1827748;77;26227;-59
2022/11/29 09:46:37;;;;;;;0.70;0.70;;;;;;;;;;1825441;77;26328;-60
2022/11/29 09:49:12;;;;;;;0.93;0.93;;;;;;;;;;1824465;77;25977;-59
2022/11/29 09:51:41;;;;;;;0.90;0.90;;;;;;;;;;1796716;78;26399;-59
2022/11/29 09:54:28;;;;;;;0.60;0.60;;;;;;;;;;1828053;78;26363;-58
2022/11/29 09:56:56;;;;;;;1.10;1.00;;;;;;;;;;1827902;78;26242;-63
2022/11/29 09:59:28;;;;;;;0.80;0.80;;;;;;;;;;1832876;78;26649;-61
2022/11/29 10:01:59;;;;;;;0.70;0.70;;;;;;;;;;1832753;78;26204;-57
2022/11/29 10:04:28;;;;;;;1.07;0.90;;;;;;;;;;1832525;76;26271;-57
2022/11/29 10:07:12;;;;;;;0.82;0.82;;;;;;;;;;1836837;76;26235;-61
2022/11/29 10:09:44;;;;;;;0.80;0.80;;;;;;;;;;1842213;78;26236;-60
2022/11/29 10:12:13;;;;;;;0.90;0.90;;;;;;;;;;1842910;78;27061;-62
2022/11/29 10:14:53;;;;;;;0.80;0.80;;;;;;;;;;1838215;76;26205;-64
2022/11/29 10:17:28;;;;;;;0.80;0.80;;;;;;;;;;1806644;76;26386;-59
2022/11/29 10:20:12;;;;;;;0.82;0.82;;;;;;;;;;1844102;76;26303;-59
2022/11/29 10:22:43;;;;;;;0.80;0.80;;;;;;;;;;1842276;76;26233;-61
2022/11/29 10:25:12;;;;;;;0.85;0.85;;;;;;;;;;1842812;76;26239;-62
2022/11/29 10:27:39;;;;;;;0.80;0.80;;;;;;;;;;1821748;77;26322;-59
2022/11/29 10:30:08;;;;;;;0.70;0.70;;;;;;;;;;1791626;79;27152;-61
2022/11/29 10:32:36;;;;;;;0.70;0.70;;;;;;;;;;1833789;77;25833;-59
2022/11/29 10:35:04;;;;;;;0.70;0.70;;;;;;;;;;1839402;77;27359;-61
2022/11/29 10:37:33;;;;;;;0.70;0.70;;;;;;;;;;1829207;78;27005;-62
2022/11/29 10:40:03;;;;;;;2.47;0.70;;;;;;;;;;1829697;78;27166;-59
2022/11/29 10:42:51;;;;;;;1.37;0.70;;;;;;;;;;1831952;77;26224;-62
2022/11/29 10:45:20;;;;;;;0.78;0.78;;;;;;;;;;1827037;78;26377;-62
2022/11/29 10:47:47;;;;;;;0.70;0.70;;;;;;;;;;1827889;78;27121;-62
2022/11/29 10:50:16;;;;;;;0.70;0.70;;;;;;;;;;1831114;78;26291;-59
2022/11/29 10:52:43;;;;;;;0.80;0.80;;;;;;;;;;1790756;80;26270;-62
2022/11/29 10:55:14;;;;;;;0.88;0.72;;;;;;;;;;1791594;79;26227;-62
2022/11/29 10:57:59;;;;;;;1.00;0.80;;;;;;;;;;1770549;79;28016;-67
2022/11/29 11:00:27;;;;;;;0.80;0.80;;;;;;;;;;1762634;79;28283;-56
2022/11/29 11:02:55;;;;;;;0.70;0.70;;;;;;;;;;1775809;79;26723;-57
2022/11/29 11:05:24;;;;;;;0.80;0.80;;;;;;;;;;1777484;79;26234;-57
2022/11/29 11:07:57;;;;;;;0.80;0.80;;;;;;;;;;1775897;79;26384;-62
2022/11/29 11:10:26;;;;;;;0.80;0.80;;;;;;;;;;1768171;79;28873;-64
2022/11/29 11:13:06;;;;;;;0.70;0.70;;;;;;;;;;1776925;79;23428;-58
2022/11/29 11:15:34;;;;;;;0.70;0.70;;;;;;;;;;1792927;79;27021;-70
2022/11/29 11:18:05;;;;;;;0.70;0.70;;;;;;;;;;1780413;79;26289;-72
2022/11/29 11:20:37;;;;;;;0.80;0.80;;;;;;;;;;1776117;79;26365;-74
2022/11/29 11:23:08;;;;;;;0.70;0.70;;;;;;;;;;1775502;80;26282;-69
2022/11/29 11:25:39;;;;;;;0.70;0.70;;;;;;;;;;1776547;79;26283;-67
2022/11/29 11:28:17;;;;;;;0.72;0.70;;;;;;;;;;1762067;81;26743;-70
2022/11/29 11:30:45;;;;;;;0.80;0.80;;;;;;;;;;1790231;78;26981;-68
2022/11/29 11:33:18;;;;;;;0.90;0.90;;;;;;;;;;1788290;78;26206;-74
2022/11/29 11:35:47;;;;;;;1.00;0.90;;;;;;;;;;1792619;79;26318;-71
2022/11/29 11:38:16;;;;;;;0.80;0.80;;;;;;;;;;1793968;78;26348;-72
2022/11/29 11:40:43;;;;;;;0.80;0.80;;;;;;;;;;1806769;77;26357;-72
2022/11/29 11:43:12;;;;;;;0.90;0.90;;;;;;;;;;1806234;78;26308;-70
2022/11/29 11:45:39;;;;;;;1.17;0.80;;;;;;;;;;1812942;77;26367;-71
2022/11/29 11:48:16;;;;;;;1.87;0.85;;;;;;;;;;1810684;77;26297;-63
2022/11/29 11:50:44;;;;;;;0.70;0.70;;;;;;;;;;1810504;77;26282;-57
2022/11/29 11:53:22;;;;;;;0.90;0.90;;;;;;;;;;1809759;77;26314;-59
2022/11/29 11:56:00;;;;;;;1.60;0.93;;;;;;;;;;1810026;78;26665;-57
2022/11/29 11:58:29;;;;;;;1.42;1.10;;;;;;;;;;1784396;79;26335;-62
2022/11/29 12:01:01;;;;;;;0.72;0.72;;;;;;;;;;1815535;77;26359;-60
2022/11/29 12:03:30;;;;;;;1.42;0.90;;;;;;;;;;1809129;77;26230;-59
2022/11/29 12:06:02;;;;;;;3.52;0.80;;;;;;;;;;1797925;78;26241;-56
2022/11/29 12:08:29;;;;;;;1.95;0.88;;;;;;;;;;1794244;78;26288;-55
2022/11/29 12:10:58;;;;;;;2.15;0.90;;;;;;;;;;1778569;79;26352;-55
2022/11/29 12:13:26;;;;;;;1.00;0.85;;;;;;;;;;1811490;77;26337;-59
2022/11/29 12:15:54;;;;;;;1.42;0.82;;;;;;;;;;1769951;79;26244;-59
2022/11/29 12:18:29;;;;;;;1.27;1.10;;;;;;;;;;1815557;77;26329;-66
2022/11/29 12:21:06;;;;;;;0.80;0.80;;;;;;;;;;1811850;78;26347;-62
2022/11/29 12:23:35;;;;;;;0.82;0.82;;;;;;;;;;1810261;77;26231;-65
2022/11/29 12:26:10;;;;;;;2.08;0.90;;;;;;;;;;1796373;78;26450;-60
2022/11/29 12:28:41;;;;;;;1.62;0.88;;;;;;;;;;1795526;78;26348;-63
2022/11/29 12:31:28;;;;;;;0.70;0.70;;;;;;;;;;1796012;79;26998;-60
2022/11/29 12:34:06;;;;;;;2.17;0.80;;;;;;;;;;1811986;78;26250;-61
2022/11/29 12:36:35;;;;;;;0.68;0.68;;;;;;;;;;1814023;78;26302;-63
2022/11/29 12:39:03;;;;;;;0.88;0.88;;;;;;;;;;1812612;78;26266;-63
2022/11/29 12:41:35;;;;;;;2.40;0.80;;;;;;;;;;1785921;79;26227;-60
2022/11/29 12:44:20;;;;;;;0.70;0.70;;;;;;;;;;1774377;79;26254;-65
2022/11/29 12:46:49;;;;;;;0.80;0.80;;;;;;;;;;1764941;80;26222;-67
2022/11/29 12:49:24;;;;;;;0.70;0.70;;;;;;;;;;1760825;79;26321;-63
2022/11/29 12:51:52;;;;;;;0.70;0.70;;;;;;;;;;1789907;78;26209;-61
2022/11/29 12:54:24;;;;;;;0.70;0.70;;;;;;;;;;1775820;79;26250;-59
2022/11/29 12:56:53;;;;;;;0.80;0.80;;;;;;;;;;1773683;79;26673;-59
2022/11/29 12:59:22;;;;;;;0.93;0.80;;;;;;;;;;1775235;79;26297;-66
2022/11/29 13:01:54;;;;;;;0.70;0.70;;;;;;;;;;1775515;79;26224;-62
2022/11/29 13:04:25;;;;;;;0.60;0.60;;;;;;;;;;1776906;79;26283;-61
2022/11/29 13:06:57;;;;;;;0.80;0.80;;;;;;;;;;1792695;78;26267;-65
2022/11/29 13:09:42;;;;;;;0.62;0.62;;;;;;;;;;1791219;78;26319;-64
2022/11/29 13:12:17;;;;;;;0.70;0.70;;;;;;;;;;1790676;78;26223;-57
2022/11/29 13:14:47;;;;;;;2.37;0.68;;;;;;;;;;1763359;80;26216;-59
2022/11/29 13:17:24;;;;;;;0.70;0.70;;;;;;;;;;1792500;78;26345;-58
2022/11/29 13:19:53;;;;;;;0.70;0.70;;;;;;;;;;1764076;81;26231;-61
2022/11/29 13:22:38;;;;;;;1.75;0.65;;;;;;;;;;1795451;79;26283;-61
2022/11/29 13:25:12;;;;;;;0.70;0.70;;;;;;;;;;1791649;79;26246;-59
2022/11/29 13:27:41;;;;;;;1.55;0.70;;;;;;;;;;1791697;79;26196;-58
2022/11/29 13:30:10;;;;;;;0.70;0.70;;;;;;;;;;1794554;79;26259;-58
2022/11/29 13:32:41;;;;;;;0.60;0.60;;;;;;;;;;1775246;79;26228;-57
2022/11/29 13:35:10;;;;;;;1.20;0.60;;;;;;;;;;1776170;79;26228;-57
2022/11/29 13:37:39;;;;;;;0.57;0.57;;;;;;;;;;1773184;79;26297;-57
2022/11/29 13:40:08;;;;;;;0.70;0.70;;;;;;;;;;1777404;79;26279;-60
2022/11/29 13:42:37;;;;;;;0.70;0.70;;;;;;;;;;1795089;79;26289;-58
2022/11/29 13:45:17;;;;;;;0.70;0.70;;;;;;;;;;1794349;78;26312;-58
2022/11/29 13:47:52;;;;;;;0.70;0.70;;;;;;;;;;1791664;78;26661;-62
2022/11/29 13:50:23;;;;;;;0.80;0.80;;;;;;;;;;1776334;79;28287;-61
2022/11/29 13:52:52;;;;;;;0.60;0.60;;;;;;;;;;1780071;79;26328;-59
2022/11/29 13:55:30;;;;;;;2.15;0.75;;;;;;;;;;1842608;76;26210;-58
2022/11/29 13:58:05;;;;;;;0.70;0.70;;;;;;;;;;1843276;76;26270;-58
2022/11/29 14:00:45;;;;;;;0.70;0.70;;;;;;;;;;1847406;76;26211;-60
2022/11/29 14:03:20;;;;;;;0.72;0.72;;;;;;;;;;1844582;77;26368;-58
2022/11/29 14:05:49;;;;;;;0.60;0.60;;;;;;;;;;1811964;77;26345;-58
2022/11/29 14:08:27;;;;;;;0.70;0.70;;;;;;;;;;1769264;79;26259;-58
2022/11/29 14:10:56;;;;;;;0.70;0.70;;;;;;;;;;1779780;79;26300;-59
2022/11/29 14:13:24;;;;;;;0.70;0.70;;;;;;;;;;1796061;78;26289;-58
2022/11/29 14:15:56;;;;;;;0.80;0.80;;;;;;;;;;1795258;78;26352;-58
2022/11/29 14:18:40;;;;;;;0.80;0.80;;;;;;;;;;1809446;77;26285;-59
2022/11/29 14:21:07;;;;;;;0.62;0.62;;;;;;;;;;1810311;78;26252;-59
2022/11/29 14:23:39;;;;;;;0.80;0.80;;;;;;;;;;1797897;78;26545;-58
2022/11/29 14:26:08;;;;;;;0.62;0.62;;;;;;;;;;1793831;78;26336;-64
2022/11/29 14:28:40;;;;;;;0.75;0.75;;;;;;;;;;1810205;78;26394;-67
2022/11/29 14:31:08;;;;;;;0.60;0.60;;;;;;;;;;1793863;79;26281;-64
2022/11/29 14:33:52;;;;;;;0.78;0.78;;;;;;;;;;1797596;78;26245;-62
2022/11/29 14:36:39;;;;;;;0.60;0.60;;;;;;;;;;1796633;78;26295;-72
2022/11/29 14:39:23;;;;;;;0.78;0.78;;;;;;;;;;1798066;78;26268;-71
2022/11/29 14:41:51;;;;;;;0.60;0.60;;;;;;;;;;1784231;78;26635;-63
2022/11/29 14:44:26;;;;;;;0.70;0.70;;;;;;;;;;1773412;79;26680;-58
2022/11/29 14:47:01;;;;;;;0.70;0.70;;;;;;;;;;1777453;79;27049;-57
2022/11/29 14:49:29;;;;;;;0.70;0.70;;;;;;;;;;1777785;79;26216;-61
2022/11/29 14:52:07;;;;;;;0.70;0.70;;;;;;;;;;1778543;79;26297;-59
2022/11/29 14:54:35;;;;;;;0.50;0.50;;;;;;;;;;1777187;79;26342;-59
2022/11/29 14:57:20;;;;;;;0.80;0.80;;;;;;;;;;1791757;78;26747;-66
2022/11/29 14:59:49;;;;;;;0.65;0.65;;;;;;;;;;1797049;79;26263;-59
2022/11/29 15:02:21;;;;;;;0.70;0.70;;;;;;;;;;1794324;79;26227;-60
2022/11/29 15:04:49;;;;;;;0.90;0.90;;;;;;;;;;1794572;79;26214;-61
2022/11/29 15:07:18;;;;;;;0.70;0.70;;;;;;;;;;1796798;78;26852;-59
2022/11/29 15:09:46;;;;;;;0.70;0.70;;;;;;;;;;1769957;80;27091;-62
2022/11/29 15:12:15;;;;;;;0.80;0.80;;;;;;;;;;1788918;79;26317;-59
2022/11/29 15:14:54;;;;;;;0.70;0.70;;;;;;;;;;1794246;79;26368;-59